Time;durP1;ratioP1;P1;durP2;ratioP2;P2;SDS_P1;SDS_P2;PMS_P1;PMS_P2;Temp;Humidity;BMP_temperature;BMP_pressure;BME280_temperature;BME280_humidity;BME280_pressure;Samples;Min_cycle;Max_cycle;Signal;HPM_P1;HPM_P2
2022/01/04 00:00:17;;;;;;;14.27;8.55;;;;;;;-8.35;90.09;98450.09;6246167;22;20366;-76
2022/01/04 00:02:43;;;;;;;16.63;10.38;;;;;;;-8.29;90.49;98457.66;6221799;22;20019;-76
2022/01/04 00:05:09;;;;;;;15.90;11.02;;;;;;;-8.25;90.08;98454.25;6220891;22;20046;-76
2022/01/04 00:07:38;;;;;;;14.23;9.70;;;;;;;-8.27;89.77;98455.91;6221451;22;20515;-77
2022/01/04 00:10:07;;;;;;;11.63;9.77;;;;;;;-8.25;90.12;98451.72;6246213;22;20027;-77
2022/01/04 00:15:18;;;;;;;16.00;12.07;;;;;;;-8.26;90.16;98455.94;6251085;22;20103;-77
2022/01/04 00:17:45;;;;;;;14.25;10.25;;;;;;;-8.26;89.60;98457.59;6246136;22;20495;-77
2022/01/04 00:20:11;;;;;;;14.00;8.25;;;;;;;-8.27;89.99;98459.28;6273425;22;20066;-76
2022/01/04 00:22:38;;;;;;;13.90;9.60;;;;;;;-8.29;89.83;98458.50;6273318;22;20016;-76
2022/01/04 00:25:05;;;;;;;11.70;8.05;;;;;;;-8.26;89.88;98460.97;6221537;22;20039;-76
2022/01/04 00:27:32;;;;;;;15.38;11.32;;;;;;;-8.27;90.13;98463.50;6196413;22;20016;-77
2022/01/04 00:29:58;;;;;;;13.20;10.32;;;;;;;-8.31;89.86;98464.41;6274216;22;20019;-75
2022/01/04 00:32:24;;;;;;;11.35;8.23;;;;;;;-8.30;89.78;98464.41;6246364;22;20038;-74
2022/01/04 00:34:52;;;;;;;19.15;11.57;;;;;;;-8.33;90.20;98461.88;6246923;22;20019;-78
2022/01/04 00:37:18;;;;;;;12.70;9.80;;;;;;;-8.29;89.95;98466.09;6197780;22;20094;-77
2022/01/04 00:39:44;;;;;;;17.08;12.32;;;;;;;-8.35;89.59;98467.78;6272907;22;20015;-77
2022/01/04 00:42:11;;;;;;;18.90;11.57;;;;;;;-8.34;90.35;98469.50;6246347;22;20432;-76
2022/01/04 00:44:37;;;;;;;13.43;10.35;;;;;;;-8.35;90.67;98473.69;6220738;22;20080;-77
2022/01/04 00:47:03;;;;;;;12.45;9.50;;;;;;;-8.33;90.20;98469.47;6273470;22;20023;-76
2022/01/04 00:49:29;;;;;;;18.23;13.88;;;;;;;-8.34;89.99;98482.13;6272904;22;20019;-77
2022/01/04 00:52:07;;;;;;;8.32;7.53;;;;;;;-8.38;90.51;98473.72;6247064;22;20020;-77
2022/01/04 00:54:37;;;;;;;20.25;9.43;;;;;;;-8.33;90.11;98472.00;6196505;22;20035;-78
2022/01/04 00:57:04;;;;;;;17.95;9.35;;;;;;;-8.43;90.05;98455.16;6173627;22;20134;-78
2022/01/04 00:59:31;;;;;;;11.55;8.65;;;;;;;-8.35;89.93;98468.63;6224382;22;20069;-78
2022/01/04 01:02:06;;;;;;;13.70;10.95;;;;;;;-8.37;89.89;98469.47;6178592;22;20448;-78
2022/01/04 01:04:34;;;;;;;15.18;11.35;;;;;;;-8.30;89.86;98484.63;6171255;22;20173;-77
2022/01/04 01:07:03;;;;;;;12.07;8.17;;;;;;;-8.36;90.03;98468.63;6195273;22;20079;-77
2022/01/04 01:09:33;;;;;;;18.90;12.48;;;;;;;-8.30;89.52;98471.97;6171118;22;20277;-77
2022/01/04 01:12:02;;;;;;;13.18;9.30;;;;;;;-8.33;89.94;98466.09;6221992;22;20360;-77
2022/01/04 01:14:37;;;;;;;14.00;8.30;;;;;;;-8.41;89.83;98461.06;6197440;22;20468;-77
2022/01/04 01:19:55;;;;;;;13.55;10.05;;;;;;;-8.28;89.83;98484.66;6180949;22;20475;-77
2022/01/04 01:22:32;;;;;;;15.85;11.43;;;;;;;-8.25;89.96;98484.59;6223304;22;20095;-76
2022/01/04 01:24:58;;;;;;;17.08;11.05;;;;;;;-8.38;89.60;98477.91;6196883;22;20114;-77
2022/01/04 01:27:24;;;;;;;12.93;10.73;;;;;;;-8.29;89.26;98486.31;6196802;22;20058;-77
2022/01/04 01:29:50;;;;;;;10.32;9.27;;;;;;;-8.31;89.95;98482.94;6246220;22;20055;-76
2022/01/04 01:32:17;;;;;;;11.20;8.20;;;;;;;-8.30;90.10;98473.66;6221378;22;20042;-77
2022/01/04 01:34:43;;;;;;;15.13;9.90;;;;;;;-8.20;89.88;98493.00;6170758;22;20016;-74
2022/01/04 01:37:09;;;;;;;10.32;8.38;;;;;;;-8.28;89.85;98482.13;6220274;22;20510;-76
2022/01/04 01:39:35;;;;;;;18.85;10.77;;;;;;;-8.25;90.10;98490.50;6272460;22;20355;-81
2022/01/04 01:42:02;;;;;;;11.93;10.38;;;;;;;-8.33;89.42;98476.22;6220976;22;20090;-78
2022/01/04 01:44:29;;;;;;;14.27;8.63;;;;;;;-8.39;89.97;98483.81;6146402;22;20119;-78
2022/01/04 01:46:55;;;;;;;15.73;10.27;;;;;;;-8.29;89.35;98485.47;6171362;22;20087;-78
2022/01/04 01:49:21;;;;;;;13.23;9.57;;;;;;;-8.31;89.45;98482.13;6196157;22;20473;-77
2022/01/04 01:51:47;;;;;;;21.20;12.60;;;;;;;-8.26;89.75;98498.09;6223236;22;20019;-77
2022/01/04 01:54:13;;;;;;;15.13;10.38;;;;;;;-8.26;89.97;98488.81;6220634;22;20023;-77
2022/01/04 01:56:40;;;;;;;24.95;14.15;;;;;;;-8.33;89.70;98481.25;6195169;22;20177;-77
2022/01/04 01:59:08;;;;;;;19.33;12.32;;;;;;;-8.26;90.12;98488.81;6246512;22;20075;-77
2022/01/04 02:01:34;;;;;;;19.10;11.98;;;;;;;-8.37;89.72;98485.50;6196116;22;20020;-77
2022/01/04 02:04:00;;;;;;;18.15;12.05;;;;;;;-8.37;89.82;98477.06;6195452;22;20023;-77
2022/01/04 02:06:29;;;;;;;19.98;11.95;;;;;;;-8.26;89.71;98485.44;6245783;22;20054;-76
2022/01/04 02:08:59;;;;;;;14.65;8.48;;;;;;;-8.28;89.81;98490.56;6196085;22;20460;-76
2022/01/04 02:11:29;;;;;;;6.25;5.25;;;;;;;-8.00;90.62;98476.94;6245186;22;20024;-77
2022/01/04 02:14:02;;;;;;;12.00;9.02;;;;;;;-7.57;91.02;98492.78;6195784;22;20046;-78
2022/01/04 02:16:31;;;;;;;14.07;8.48;;;;;;;-7.96;88.94;98476.06;6149124;22;20082;-78
2022/01/04 02:19:00;;;;;;;12.05;8.13;;;;;;;-8.03;88.65;98478.63;6195238;22;20019;-77
2022/01/04 02:21:27;;;;;;;18.70;8.77;;;;;;;-8.26;89.37;98472.78;6171085;22;20031;-77
2022/01/04 02:23:57;;;;;;;12.88;8.68;;;;;;;-8.27;89.30;98476.16;6195198;22;20050;-77
2022/01/04 02:26:24;;;;;;;11.00;8.38;;;;;;;-8.24;89.39;98496.38;6193417;22;20020;-77
2022/01/04 02:28:52;;;;;;;12.75;8.30;;;;;;;-8.29;89.88;98493.06;6195972;22;20457;-76
2022/01/04 02:31:18;;;;;;;8.50;7.15;;;;;;;-8.28;89.70;98489.69;6195364;22;20016;-77
2022/01/04 02:33:44;;;;;;;8.52;6.63;;;;;;;-8.25;89.10;98494.72;6245281;22;20459;-77
2022/01/04 02:36:10;;;;;;;14.48;10.90;;;;;;;-8.23;89.51;98498.06;6196169;22;20046;-78
2022/01/04 02:38:37;;;;;;;13.63;10.07;;;;;;;-8.25;89.67;98500.63;6221023;22;20468;-77
2022/01/04 02:41:03;;;;;;;13.52;10.43;;;;;;;-8.19;90.25;98512.41;6222605;22;20012;-77
2022/01/04 02:43:29;;;;;;;15.93;10.15;;;;;;;-8.24;90.02;98512.41;6274858;22;20098;-76
2022/01/04 02:45:55;;;;;;;16.90;9.32;;;;;;;-8.29;89.39;98505.72;6222119;22;20162;-76
2022/01/04 02:48:22;;;;;;;15.45;11.02;;;;;;;-8.27;89.93;98512.41;6249348;22;20129;-78
2022/01/04 02:50:50;;;;;;;13.82;10.30;;;;;;;-8.23;89.56;98503.97;6248269;22;20042;-80
2022/01/04 02:53:17;;;;;;;16.20;9.75;;;;;;;-8.27;89.02;98502.31;6173731;22;20016;-76
2022/01/04 02:55:43;;;;;;;14.52;9.75;;;;;;;-8.27;89.83;98506.50;6248270;22;20101;-78
2022/01/04 02:58:09;;;;;;;15.60;10.40;;;;;;;-8.26;90.11;98513.28;6197830;22;20456;-76
2022/01/04 03:00:35;;;;;;;12.68;9.77;;;;;;;-8.26;89.40;98513.28;6191181;23;20031;-77
2022/01/04 03:03:02;;;;;;;13.80;10.07;;;;;;;-8.30;89.88;98514.16;6217121;23;20020;-77
2022/01/04 03:05:28;;;;;;;12.55;9.50;;;;;;;-8.23;90.16;98520.84;6192035;23;20422;-78
2022/01/04 03:07:59;;;;;;;15.05;8.27;;;;;;;-8.26;89.89;98524.22;6142764;23;20020;-77
2022/01/04 03:10:25;;;;;;;17.85;10.57;;;;;;;-8.32;89.77;98509.09;6216825;23;20024;-78
2022/01/04 03:12:51;;;;;;;11.63;8.60;;;;;;;-8.27;89.84;98526.75;6191367;23;20020;-77
2022/01/04 03:15:20;;;;;;;19.08;11.73;;;;;;;-8.23;89.86;98536.88;6167425;23;20024;-76
2022/01/04 03:17:49;;;;;;;19.75;12.18;;;;;;;-8.30;90.09;98521.72;6118253;23;20036;-78
2022/01/04 03:20:20;;;;;;;13.98;10.80;;;;;;;-8.42;89.97;98521.75;6191485;23;20024;-78
2022/01/04 03:22:46;;;;;;;12.82;9.60;;;;;;;-8.41;90.31;98526.84;6165994;23;20028;-78
2022/01/04 03:25:15;;;;;;;13.90;9.23;;;;;;;-8.31;89.94;98542.84;6191220;23;20024;-77
2022/01/04 03:27:41;;;;;;;9.40;7.97;;;;;;;-8.29;89.70;98546.19;6190930;23;20016;-77
2022/01/04 03:30:08;;;;;;;12.77;9.35;;;;;;;-8.38;90.34;98533.56;6243139;23;20027;-76
2022/01/04 03:32:34;;;;;;;15.23;11.13;;;;;;;-8.33;90.23;98534.38;6217301;23;20040;-76
2022/01/04 03:35:00;;;;;;;14.30;8.77;;;;;;;-8.33;89.42;98537.78;6216115;23;20051;-78
2022/01/04 03:37:26;;;;;;;15.15;10.90;;;;;;;-8.26;89.74;98557.13;6192693;23;20043;-78
2022/01/04 03:39:53;;;;;;;10.82;8.90;;;;;;;-8.31;89.94;98547.91;6192015;23;20020;-76
2022/01/04 03:42:19;;;;;;;16.88;12.63;;;;;;;-8.29;89.57;98548.72;6167637;23;20027;-78
2022/01/04 03:44:54;;;;;;;18.63;12.27;;;;;;;-8.33;90.26;98557.16;6167106;23;20043;-78
2022/01/04 03:47:29;;;;;;;23.70;12.55;;;;;;;-8.33;89.86;98559.69;6145249;23;20410;-77
2022/01/04 03:49:57;;;;;;;16.73;11.48;;;;;;;-8.33;90.24;98562.22;6165221;23;20035;-77
2022/01/04 03:52:49;;;;;;;26.05;14.82;;;;;;;-8.36;89.95;98564.75;6156182;23;20122;-78
2022/01/04 03:55:16;;;;;;;29.58;18.13;;;;;;;-8.34;89.90;98558.03;6190965;23;20031;-76
2022/01/04 03:57:42;;;;;;;22.02;12.93;;;;;;;-8.38;89.98;98558.88;6166214;23;20020;-78
2022/01/04 04:00:09;;;;;;;29.63;17.25;;;;;;;-8.38;89.88;98559.72;6217795;22;20062;-78
2022/01/04 04:02:44;;;;;;;31.83;15.65;;;;;;;-8.54;89.91;98551.25;6224774;22;20023;-78
2022/01/04 04:05:12;;;;;;;26.23;16.27;;;;;;;-8.38;90.49;98579.09;6197375;22;20016;-77
2022/01/04 04:07:39;;;;;;;27.77;15.52;;;;;;;-8.44;89.58;98567.28;6171611;22;20020;-78
2022/01/04 04:10:05;;;;;;;23.23;14.88;;;;;;;-8.44;90.31;98569.81;6196439;22;20015;-77
2022/01/04 04:12:31;;;;;;;29.73;18.35;;;;;;;-8.47;90.00;98568.13;6247194;22;20460;-77
2022/01/04 04:14:58;;;;;;;19.42;12.55;;;;;;;-8.47;90.12;98564.75;6172138;22;20023;-78
2022/01/04 04:17:24;;;;;;;31.92;18.65;;;;;;;-8.43;90.09;98566.44;6222441;22;20024;-78
2022/01/04 04:19:51;;;;;;;21.38;12.93;;;;;;;-8.43;90.41;98574.03;6181725;22;20033;-78
2022/01/04 04:22:17;;;;;;;23.40;13.23;;;;;;;-8.36;89.82;98582.47;6243847;22;20042;-79
2022/01/04 04:24:44;;;;;;;23.20;12.25;;;;;;;-8.40;89.46;98570.66;6194915;22;20058;-79
2022/01/04 04:27:10;;;;;;;16.15;11.98;;;;;;;-8.32;89.89;98574.88;6194640;22;20019;-78
2022/01/04 04:29:36;;;;;;;18.27;12.05;;;;;;;-8.38;90.12;98574.03;6191400;22;20060;-79
2022/01/04 04:32:03;;;;;;;19.70;11.85;;;;;;;-8.48;89.85;98566.47;6294416;22;20004;-80
2022/01/04 04:34:29;;;;;;;26.15;14.38;;;;;;;-8.38;89.84;98571.50;6185543;22;20039;-81
2022/01/04 04:36:55;;;;;;;18.10;11.43;;;;;;;-8.44;90.22;98566.47;6205056;22;20045;-80
2022/01/04 04:39:21;;;;;;;18.98;10.68;;;;;;;-8.48;89.92;98558.03;6181802;22;20043;-81
2022/01/04 04:41:50;;;;;;;19.50;12.95;;;;;;;-8.40;90.17;98583.28;6231086;22;20031;-80
2022/01/04 04:44:18;;;;;;;17.38;12.68;;;;;;;-8.40;89.94;98585.81;6202762;22;20026;-79
2022/01/04 04:46:45;;;;;;;15.02;9.93;;;;;;;-8.44;90.25;98584.97;6201618;22;20015;-76
2022/01/04 04:49:11;;;;;;;20.85;10.20;;;;;;;-8.53;89.87;98574.88;6249586;22;20031;-76
2022/01/04 04:51:37;;;;;;;20.05;11.50;;;;;;;-8.43;90.04;98593.41;6276234;22;20023;-78
2022/01/04 04:54:03;;;;;;;14.68;9.80;;;;;;;-8.50;90.29;98580.78;6222633;22;20023;-78
2022/01/04 04:56:30;;;;;;;15.95;10.15;;;;;;;-8.48;90.58;98589.22;6223249;22;20020;-77
2022/01/04 04:58:56;;;;;;;12.77;7.55;;;;;;;-8.54;90.20;98581.63;6248448;22;20034;-77
2022/01/04 05:01:22;;;;;;;12.43;9.15;;;;;;;-8.55;90.30;98587.53;6197375;22;20472;-78
2022/01/04 05:03:51;;;;;;;21.10;10.32;;;;;;;-8.48;90.48;98599.34;6172590;22;20047;-77
2022/01/04 05:06:18;;;;;;;18.88;11.88;;;;;;;-8.48;90.58;98599.34;6222204;22;20032;-78
2022/01/04 05:08:44;;;;;;;23.55;12.35;;;;;;;-8.46;90.64;98599.31;6246242;22;20019;-78
2022/01/04 05:11:10;;;;;;;21.67;12.32;;;;;;;-8.51;90.15;98609.44;6196328;22;20023;-77
2022/01/04 05:13:36;;;;;;;9.75;6.00;;;;;;;-8.52;90.65;98600.19;6222078;22;20020;-76
2022/01/04 05:16:05;;;;;;;16.08;9.90;;;;;;;-8.48;90.96;98606.09;6253596;22;20019;-80
2022/01/04 05:18:31;;;;;;;10.20;6.80;;;;;;;-8.48;90.33;98606.94;6257768;22;20026;-80
2022/01/04 05:20:57;;;;;;;5.57;4.80;;;;;;;-8.54;90.08;98604.38;6211909;22;20103;-81
2022/01/04 05:23:23;;;;;;;2.92;2.70;;;;;;;-8.52;90.74;98615.34;6290197;22;20022;-81
2022/01/04 05:25:49;;;;;;;4.53;4.22;;;;;;;-8.67;90.72;98584.97;6234735;22;20015;-79
2022/01/04 05:28:15;;;;;;;11.98;9.07;;;;;;;-8.48;90.06;98617.03;6157366;22;20031;-79
2022/01/04 05:30:41;;;;;;;6.53;5.93;;;;;;;-8.46;89.87;98617.88;6260647;22;20019;-80
2022/01/04 05:33:07;;;;;;;3.40;3.20;;;;;;;-8.54;90.35;98614.50;6290988;22;20019;-79
2022/01/04 05:35:33;;;;;;;3.90;3.60;;;;;;;-8.54;90.94;98614.50;6265023;22;20003;-80
2022/01/04 05:38:02;;;;;;;4.28;3.88;;;;;;;-8.57;91.20;98627.13;6236713;22;20015;-81
2022/01/04 05:40:28;;;;;;;11.35;8.10;;;;;;;-8.50;91.27;98620.41;6288983;22;20045;-79
2022/01/04 05:42:55;;;;;;;5.05;4.30;;;;;;;-8.44;91.20;98624.63;6235878;22;20022;-80
2022/01/04 05:45:21;;;;;;;8.10;6.15;;;;;;;-8.52;90.78;98622.94;6262149;22;20035;-80
2022/01/04 05:47:47;;;;;;;5.63;5.13;;;;;;;-8.47;90.91;98616.19;6261413;22;20027;-80
2022/01/04 05:50:13;;;;;;;12.40;7.15;;;;;;;-8.49;90.89;98622.94;6262511;22;20054;-79
2022/01/04 05:52:39;;;;;;;12.57;7.72;;;;;;;-8.47;90.62;98611.13;6264630;22;20468;-79
2022/01/04 05:55:06;;;;;;;20.55;9.65;;;;;;;-8.48;90.80;98618.72;6241426;22;20067;-80
2022/01/04 05:57:32;;;;;;;5.60;4.50;;;;;;;-8.53;90.79;98626.31;6268775;22;20024;-81
2022/01/04 06:00:01;;;;;;;10.80;7.65;;;;;;;-8.48;90.74;98626.31;6243959;22;20026;-80
2022/01/04 06:02:28;;;;;;;15.30;9.23;;;;;;;-8.56;90.62;98617.88;6244024;22;20020;-80
2022/01/04 06:04:57;;;;;;;9.63;4.15;;;;;;;-8.53;90.59;98633.88;6218919;22;20020;-80
2022/01/04 06:07:27;;;;;;;12.38;8.50;;;;;;;-8.50;90.88;98631.34;6217046;22;20015;-80
2022/01/04 06:09:54;;;;;;;6.38;5.20;;;;;;;-8.65;90.80;98626.31;6218393;22;20119;-79
2022/01/04 06:14:52;;;;;;;9.85;4.40;;;;;;;-8.53;91.06;98638.94;6244848;22;20016;-81
2022/01/04 06:17:19;;;;;;;6.85;6.18;;;;;;;-8.54;90.59;98639.78;6272152;22;20019;-81
2022/01/04 06:19:44;;;;;;;3.60;3.30;;;;;;;-8.56;90.60;98646.53;6245031;22;20031;-81
2022/01/04 06:22:10;;;;;;;8.35;6.20;;;;;;;-8.63;90.64;98638.94;6268901;22;20023;-80
2022/01/04 06:24:37;;;;;;;5.45;4.43;;;;;;;-8.59;90.37;98636.41;6243540;22;20030;-81
2022/01/04 06:27:10;;;;;;;5.43;4.88;;;;;;;-8.61;90.41;98638.13;6296882;22;20022;-79
2022/01/04 06:29:40;;;;;;;16.13;9.63;;;;;;;-8.58;90.35;98647.38;6220278;22;20028;-80
2022/01/04 06:32:07;;;;;;;3.05;2.85;;;;;;;-8.54;90.41;98656.66;6296426;22;20024;-81
2022/01/04 06:34:33;;;;;;;8.65;6.43;;;;;;;-8.53;90.64;98654.13;6269600;22;20022;-80
2022/01/04 06:37:00;;;;;;;20.50;9.65;;;;;;;-8.54;90.47;98660.00;6245162;22;20016;-79
2022/01/04 06:39:26;;;;;;;8.45;6.78;;;;;;;-8.51;90.11;98660.00;6270603;22;20035;-80
2022/01/04 06:41:52;;;;;;;8.95;6.30;;;;;;;-8.60;90.38;98671.81;6296232;22;20034;-80
2022/01/04 06:44:18;;;;;;;8.77;7.03;;;;;;;-8.62;89.74;98671.81;6296163;22;20022;-80
2022/01/04 06:46:45;;;;;;;7.43;6.13;;;;;;;-8.57;89.71;98672.66;6244526;22;20015;-80
2022/01/04 06:49:13;;;;;;;1.92;1.83;;;;;;;-8.55;89.87;98681.09;6195769;22;20020;-81
2022/01/04 06:51:39;;;;;;;3.58;3.20;;;;;;;-8.51;89.68;98685.31;6220368;22;20027;-80
2022/01/04 06:54:07;;;;;;;5.78;3.55;;;;;;;-8.53;89.45;98691.22;6271016;22;20050;-81
2022/01/04 06:56:33;;;;;;;3.05;2.85;;;;;;;-8.53;89.11;98691.22;6244860;22;20080;-80
2022/01/04 06:59:00;;;;;;;4.95;4.35;;;;;;;-8.46;89.52;98693.75;6268158;22;20027;-80
2022/01/04 07:01:26;;;;;;;8.05;5.75;;;;;;;-8.41;89.21;98695.47;6266301;22;20075;-80
2022/01/04 07:03:52;;;;;;;7.25;3.97;;;;;;;-8.42;88.92;98701.34;6293762;22;20019;-80
2022/01/04 07:06:19;;;;;;;3.15;2.97;;;;;;;-8.44;88.52;98695.47;6293129;22;20038;-80
2022/01/04 07:08:47;;;;;;;7.70;5.35;;;;;;;-8.40;88.76;98697.13;6239965;22;20024;-81
2022/01/04 07:11:14;;;;;;;7.60;5.82;;;;;;;-8.35;88.66;98710.66;6217180;22;20042;-79
2022/01/04 07:13:40;;;;;;;8.75;5.50;;;;;;;-8.38;88.90;98706.44;6292181;22;20050;-80
2022/01/04 07:16:06;;;;;;;9.32;7.10;;;;;;;-8.37;88.60;98712.31;6266360;22;20020;-81
2022/01/04 07:18:35;;;;;;;11.77;7.85;;;;;;;-8.32;88.31;98715.69;6267485;22;20015;-82
2022/01/04 07:21:01;;;;;;;5.57;5.07;;;;;;;-8.38;88.57;98716.56;6216356;22;20046;-82
2022/01/04 07:23:27;;;;;;;12.35;8.65;;;;;;;-8.28;87.58;98710.66;6266919;22;20015;-82
2022/01/04 07:25:54;;;;;;;16.40;10.18;;;;;;;-8.24;87.79;98714.81;6270037;22;20023;-75
2022/01/04 07:28:23;;;;;;;23.08;11.48;;;;;;;-8.21;87.90;98714.00;6246586;22;20073;-81
2022/01/04 07:30:49;;;;;;;15.00;10.10;;;;;;;-8.29;87.58;98716.56;6221272;22;20121;-82
2022/01/04 07:33:17;;;;;;;14.75;9.32;;;;;;;-8.23;86.87;98715.69;6216707;22;20023;-80
2022/01/04 07:35:46;;;;;;;15.98;8.80;;;;;;;-8.23;87.60;98728.31;6214991;22;20494;-81
2022/01/04 07:38:12;;;;;;;15.63;7.22;;;;;;;-8.20;88.26;98720.75;6266414;22;20035;-81
2022/01/04 07:40:38;;;;;;;17.85;11.43;;;;;;;-8.11;87.28;98723.28;6266787;22;20016;-82
2022/01/04 07:43:04;;;;;;;26.92;14.45;;;;;;;-8.13;86.63;98719.91;6241910;22;20026;-81
2022/01/04 07:45:31;;;;;;;22.48;11.90;;;;;;;-8.13;86.83;98713.16;6268606;22;20016;-83
2022/01/04 07:47:57;;;;;;;18.73;11.95;;;;;;;-8.02;86.89;98718.25;6261380;22;20019;-82
2022/01/04 07:50:23;;;;;;;26.55;14.77;;;;;;;-8.02;86.99;98725.81;6209458;22;20026;-81
2022/01/04 07:52:50;;;;;;;23.08;14.27;;;;;;;-8.00;86.18;98719.06;6286580;22;20151;-81
2022/01/04 07:55:16;;;;;;;13.07;9.93;;;;;;;-7.98;86.63;98712.31;6234405;22;20165;-81
2022/01/04 07:57:44;;;;;;;17.65;11.32;;;;;;;-7.90;86.11;98725.81;6260666;22;20027;-81
2022/01/04 08:00:12;;;;;;;13.68;9.32;;;;;;;-7.96;86.57;98725.81;6260847;22;20030;-81
2022/01/04 08:02:42;;;;;;;23.35;12.57;;;;;;;-7.93;86.36;98725.81;6262520;22;20106;-80
2022/01/04 08:05:08;;;;;;;18.80;11.82;;;;;;;-7.91;86.30;98726.66;6289922;22;20455;-81
2022/01/04 08:07:35;;;;;;;14.90;9.93;;;;;;;-7.79;86.15;98735.97;6260749;22;20016;-80
2022/01/04 08:10:01;;;;;;;21.00;11.68;;;;;;;-7.84;85.93;98730.03;6287195;22;20073;-81
2022/01/04 08:12:27;;;;;;;18.38;12.57;;;;;;;-7.85;85.42;98730.91;6212042;22;20019;-80
2022/01/04 08:14:54;;;;;;;18.13;10.60;;;;;;;-7.88;85.82;98734.25;6239413;22;20047;-81
2022/01/04 08:17:20;;;;;;;18.40;12.10;;;;;;;-7.87;85.38;98735.94;6258772;22;20020;-81
2022/01/04 08:19:47;;;;;;;23.48;13.18;;;;;;;-7.83;85.79;98730.06;6260033;22;20026;-82
2022/01/04 08:22:13;;;;;;;13.80;8.68;;;;;;;-7.89;85.91;98725.00;6209689;22;20028;-82
2022/01/04 08:24:39;;;;;;;18.98;10.00;;;;;;;-7.83;85.41;98730.06;6234102;22;20020;-81
2022/01/04 08:27:05;;;;;;;17.77;11.50;;;;;;;-7.79;85.04;98729.22;6183290;22;20027;-81
2022/01/04 08:29:32;;;;;;;21.38;13.55;;;;;;;-7.75;84.77;98730.06;6233968;22;20480;-80
2022/01/04 08:31:58;;;;;;;21.25;12.30;;;;;;;-7.74;84.54;98730.03;6233447;22;20023;-80
2022/01/04 08:34:25;;;;;;;26.45;16.38;;;;;;;-7.77;84.91;98737.63;6257177;22;20031;-81
2022/01/04 08:36:51;;;;;;;23.13;12.52;;;;;;;-7.76;85.54;98735.97;6207837;22;20062;-80
2022/01/04 08:39:17;;;;;;;26.17;13.85;;;;;;;-7.67;85.20;98739.31;6233662;22;20043;-80
2022/01/04 08:41:45;;;;;;;21.10;11.93;;;;;;;-7.65;84.89;98745.22;6258129;22;20019;-82
2022/01/04 08:44:12;;;;;;;15.52;9.75;;;;;;;-7.62;84.33;98736.75;6231889;22;20023;-81
2022/01/04 08:46:39;;;;;;;23.52;12.30;;;;;;;-7.59;83.80;98741.88;6259050;22;20031;-81
2022/01/04 08:49:09;;;;;;;17.55;11.57;;;;;;;-7.49;84.15;98739.28;6286820;22;20015;-80
2022/01/04 08:51:35;;;;;;;18.58;12.55;;;;;;;-7.53;83.40;98729.19;6235255;22;20030;-80
2022/01/04 08:54:02;;;;;;;19.02;12.43;;;;;;;-7.59;83.75;98739.31;6259379;22;20022;-81
2022/01/04 08:56:28;;;;;;;23.65;14.70;;;;;;;-7.54;83.07;98733.41;6260312;22;20046;-82
2022/01/04 08:58:55;;;;;;;28.83;15.63;;;;;;;-7.55;83.23;98729.16;6289662;22;20021;-80
2022/01/04 09:01:21;;;;;;;20.05;12.05;;;;;;;-7.49;83.33;98724.09;6234579;22;20034;-81
2022/01/04 09:03:48;;;;;;;23.35;13.88;;;;;;;-7.49;82.89;98729.16;6210211;22;20202;-81
2022/01/04 09:06:14;;;;;;;21.63;12.60;;;;;;;-7.45;82.28;98733.38;6210679;22;20071;-82
2022/01/04 09:08:40;;;;;;;20.88;11.32;;;;;;;-7.40;82.72;98724.09;6232929;22;20054;-82
2022/01/04 09:11:06;;;;;;;26.23;16.30;;;;;;;-7.43;82.52;98726.59;6228763;22;20023;-82
2022/01/04 09:13:38;;;;;;;19.35;11.35;;;;;;;-7.50;82.50;98734.25;6231438;22;20023;-80
2022/01/04 09:18:43;;;;;;;24.48;13.63;;;;;;;-7.51;83.92;98745.22;6258355;22;20165;-81
2022/01/04 09:21:28;;;;;;;24.25;13.82;;;;;;;-7.40;83.55;98749.44;6236370;22;20043;-81
2022/01/04 09:23:56;;;;;;;34.97;18.83;;;;;;;-7.40;82.99;98741.84;6211864;22;20020;-78
2022/01/04 09:26:23;;;;;;;28.85;15.52;;;;;;;-7.31;82.77;98737.59;6238134;22;20020;-81
2022/01/04 09:28:49;;;;;;;25.00;13.73;;;;;;;-7.21;83.09;98751.94;6212973;22;20059;-81
2022/01/04 09:31:15;;;;;;;25.85;12.80;;;;;;;-7.32;83.25;98740.94;6208373;22;20027;-81
2022/01/04 09:33:42;;;;;;;33.65;17.52;;;;;;;-7.25;83.03;98761.22;6185458;22;20471;-81
2022/01/04 09:36:08;;;;;;;37.25;18.77;;;;;;;-7.33;83.07;98760.41;6238561;22;20102;-81
2022/01/04 09:38:35;;;;;;;31.83;15.48;;;;;;;-7.41;83.23;98742.66;6265841;22;20016;-79
2022/01/04 09:41:01;;;;;;;49.13;21.02;;;;;;;-7.46;82.81;98762.09;6239816;22;20023;-79
2022/01/04 09:43:27;;;;;;;29.95;14.07;;;;;;;-7.33;82.57;98764.63;6238135;22;20020;-81
2022/01/04 09:45:53;;;;;;;30.83;14.18;;;;;;;-7.36;81.60;98744.38;6239816;22;20016;-81
2022/01/04 09:48:19;;;;;;;22.08;12.82;;;;;;;-7.34;82.05;98756.19;6240901;22;20072;-80
2022/01/04 09:50:46;;;;;;;21.95;13.43;;;;;;;-7.34;81.92;98742.66;6242040;22;20023;-80
2022/01/04 09:53:19;;;;;;;21.67;10.43;;;;;;;-7.11;81.08;98764.59;6240252;22;20019;-80
2022/01/04 09:55:48;;;;;;;24.20;13.68;;;;;;;-7.18;81.73;98749.38;6216195;22;20160;-81
2022/01/04 09:58:14;;;;;;;29.88;15.48;;;;;;;-7.04;81.56;98758.66;6264660;22;20019;-81
2022/01/04 10:00:40;;;;;;;12.20;8.95;;;;;;;-7.30;81.10;98745.19;6239686;22;20037;-80
2022/01/04 10:03:26;;;;;;;17.98;10.27;;;;;;;-7.20;81.70;98761.22;6215236;22;20026;-79
2022/01/04 10:06:15;;;;;;;30.55;13.18;;;;;;;-7.01;80.91;98748.50;6240074;22;20525;-80
2022/01/04 10:08:56;;;;;;;27.92;13.95;;;;;;;-6.98;81.02;98762.84;6216094;22;20079;-80
2022/01/04 10:11:54;;;;;;;17.70;9.68;;;;;;;-6.95;80.29;98762.84;6265018;22;20061;-80
2022/01/04 10:14:29;;;;;;;23.55;11.52;;;;;;;-6.95;80.90;98757.78;6211174;22;20023;-80
2022/01/04 10:17:00;;;;;;;23.50;11.52;;;;;;;-6.90;80.58;98748.44;6268235;22;20066;-79
2022/01/04 10:19:33;;;;;;;8.35;5.63;;;;;;;-6.99;79.91;98756.94;6218182;22;20012;-81
2022/01/04 10:22:23;;;;;;;21.92;12.27;;;;;;;-7.00;79.79;98759.50;6294927;22;20016;-80
2022/01/04 10:25:11;;;;;;;25.40;12.43;;;;;;;-7.09;80.11;98754.41;6240568;22;20115;-80
2022/01/04 10:27:46;;;;;;;20.90;12.25;;;;;;;-7.18;80.32;98769.66;6289333;22;20024;-82
2022/01/04 10:30:22;;;;;;;14.40;9.30;;;;;;;-7.10;80.62;98758.63;6233337;22;20043;-81
2022/01/04 10:32:56;;;;;;;5.35;4.70;;;;;;;-7.16;80.65;98765.41;6236723;22;20019;-81
2022/01/04 10:35:26;;;;;;;13.70;7.05;;;;;;;-7.02;80.79;98767.09;6234035;22;20019;-81
2022/01/04 10:37:53;;;;;;;13.38;7.90;;;;;;;-7.15;80.78;98744.31;6283889;22;20593;-81
2022/01/04 10:40:19;;;;;;;19.35;10.93;;;;;;;-6.96;80.71;98758.59;6231285;22;20714;-81
2022/01/04 10:42:46;;;;;;;15.85;8.60;;;;;;;-7.02;80.61;98756.09;6231451;22;20026;-81
2022/01/04 10:45:28;;;;;;;20.92;11.85;;;;;;;-6.82;80.13;98763.63;6181213;22;20020;-82
2022/01/04 10:47:54;;;;;;;;;;;;;;;-6.92;79.79;98765.38;6230638;22;20449;-81
2022/01/04 10:50:34;;;;;;;14.35;8.73;;;;;;;-7.06;79.66;98764.53;6283653;22;20303;-81
2022/01/04 10:53:01;;;;;;;20.55;10.45;;;;;;;-6.95;80.18;98770.44;6230038;22;20020;-81
2022/01/04 10:55:36;;;;;;;20.00;10.07;;;;;;;-6.83;79.71;98778.00;6255860;22;20082;-81
2022/01/04 10:58:03;;;;;;;14.15;8.68;;;;;;;-6.78;80.14;98773.78;6205327;22;20376;-81
2022/01/04 11:00:30;;;;;;;11.25;8.35;;;;;;;-6.97;80.11;98769.63;6233386;22;20391;-82
2022/01/04 11:02:58;;;;;;;22.05;11.48;;;;;;;-7.00;80.27;98765.38;6258390;22;20447;-79
2022/01/04 11:05:24;;;;;;;23.65;11.75;;;;;;;-6.97;80.24;98759.47;6285270;22;20019;-80
2022/01/04 11:08:04;;;;;;;25.05;12.02;;;;;;;-7.04;80.42;98762.88;6235532;22;20016;-80
2022/01/04 11:10:32;;;;;;;15.65;8.93;;;;;;;-7.20;81.01;98767.16;6272029;22;20071;-80
2022/01/04 11:12:58;;;;;;;17.75;11.20;;;;;;;-7.12;81.50;98762.03;6272043;22;20050;-80
